sensor_id;sensor_type;location;lat;lon;timestamp;P1;durP1;ratioP1;P2;durP2;ratioP2
54145;SDS011;65909;49.422;7.738;2023-04-08T00:00:14;7.40;;;5.93;;
54145;SDS011;65909;49.422;7.738;2023-04-08T00:02:39;7.93;;;6.10;;
54145;SDS011;65909;49.422;7.738;2023-04-08T00:05:05;7.63;;;6.32;;
54145;SDS011;65909;49.422;7.738;2023-04-08T00:07:32;7.40;;;6.13;;
54145;SDS011;65909;49.422;7.738;2023-04-08T00:09:57;8.57;;;5.65;;
54145;SDS011;65909;49.422;7.738;2023-04-08T00:12:23;7.88;;;6.15;;
54145;SDS011;65909;49.422;7.738;2023-04-08T00:14:48;8.02;;;6.53;;
54145;SDS011;65909;49.422;7.738;2023-04-08T00:17:13;8.43;;;6.57;;
54145;SDS011;65909;49.422;7.738;2023-04-08T00:19:39;8.95;;;5.97;;
54145;SDS011;65909;49.422;7.738;2023-04-08T00:22:04;7.95;;;6.03;;
54145;SDS011;65909;49.422;7.738;2023-04-08T00:24:30;8.07;;;6.07;;
54145;SDS011;65909;49.422;7.738;2023-04-08T00:26:56;9.93;;;6.47;;
54145;SDS011;65909;49.422;7.738;2023-04-08T00:29:22;9.13;;;6.10;;
54145;SDS011;65909;49.422;7.738;2023-04-08T00:31:47;8.95;;;6.32;;
54145;SDS011;65909;49.422;7.738;2023-04-08T00:34:13;8.63;;;6.13;;
54145;SDS011;65909;49.422;7.738;2023-04-08T00:36:38;8.23;;;6.72;;
54145;SDS011;65909;49.422;7.738;2023-04-08T00:39:04;8.93;;;6.45;;
54145;SDS011;65909;49.422;7.738;2023-04-08T00:41:30;8.55;;;6.20;;
54145;SDS011;65909;49.422;7.738;2023-04-08T00:43:57;8.77;;;6.32;;
54145;SDS011;65909;49.422;7.738;2023-04-08T00:46:22;7.65;;;6.55;;
54145;SDS011;65909;49.422;7.738;2023-04-08T00:48:48;10.45;;;6.82;;
54145;SDS011;65909;49.422;7.738;2023-04-08T00:51:13;7.82;;;6.15;;
54145;SDS011;65909;49.422;7.738;2023-04-08T00:53:40;10.05;;;6.85;;
54145;SDS011;65909;49.422;7.738;2023-04-08T00:56:05;9.32;;;7.22;;
54145;SDS011;65909;49.422;7.738;2023-04-08T00:58:30;10.30;;;7.43;;
54145;SDS011;65909;49.422;7.738;2023-04-08T01:00:59;8.63;;;7.10;;
54145;SDS011;65909;49.422;7.738;2023-04-08T01:03:49;9.77;;;6.85;;
54145;SDS011;65909;49.422;7.738;2023-04-08T01:06:21;8.50;;;6.15;;
54145;SDS011;65909;49.422;7.738;2023-04-08T01:08:57;9.60;;;6.57;;
54145;SDS011;65909;49.422;7.738;2023-04-08T01:11:24;8.60;;;6.00;;
54145;SDS011;65909;49.422;7.738;2023-04-08T01:13:53;9.98;;;7.20;;
54145;SDS011;65909;49.422;7.738;2023-04-08T01:16:20;8.50;;;6.60;;
54145;SDS011;65909;49.422;7.738;2023-04-08T01:18:49;10.75;;;7.47;;
54145;SDS011;65909;49.422;7.738;2023-04-08T01:21:15;9.80;;;7.30;;
54145;SDS011;65909;49.422;7.738;2023-04-08T01:26:33;10.18;;;7.75;;
54145;SDS011;65909;49.422;7.738;2023-04-08T01:29:00;7.78;;;6.80;;
54145;SDS011;65909;49.422;7.738;2023-04-08T01:31:27;12.13;;;7.40;;
54145;SDS011;65909;49.422;7.738;2023-04-08T01:33:53;9.45;;;7.68;;
54145;SDS011;65909;49.422;7.738;2023-04-08T01:36:20;10.68;;;7.50;;
54145;SDS011;65909;49.422;7.738;2023-04-08T01:38:47;11.05;;;7.65;;
54145;SDS011;65909;49.422;7.738;2023-04-08T01:41:14;11.98;;;8.02;;
54145;SDS011;65909;49.422;7.738;2023-04-08T01:43:42;12.20;;;8.35;;
54145;SDS011;65909;49.422;7.738;2023-04-08T01:46:08;10.70;;;8.02;;
54145;SDS011;65909;49.422;7.738;2023-04-08T01:48:35;10.73;;;8.32;;
54145;SDS011;65909;49.422;7.738;2023-04-08T01:51:03;9.95;;;7.63;;
54145;SDS011;65909;49.422;7.738;2023-04-08T01:53:30;13.13;;;7.95;;
54145;SDS011;65909;49.422;7.738;2023-04-08T01:56:05;10.25;;;8.32;;
54145;SDS011;65909;49.422;7.738;2023-04-08T01:58:36;10.55;;;8.18;;
54145;SDS011;65909;49.422;7.738;2023-04-08T02:01:05;12.65;;;8.48;;
54145;SDS011;65909;49.422;7.738;2023-04-08T02:03:35;11.52;;;8.43;;
54145;SDS011;65909;49.422;7.738;2023-04-08T02:06:01;11.82;;;8.38;;
54145;SDS011;65909;49.422;7.738;2023-04-08T02:08:27;12.93;;;9.43;;
54145;SDS011;65909;49.422;7.738;2023-04-08T02:10:52;11.63;;;9.20;;
54145;SDS011;65909;49.422;7.738;2023-04-08T02:13:18;13.90;;;9.00;;
54145;SDS011;65909;49.422;7.738;2023-04-08T02:15:46;12.95;;;8.38;;
54145;SDS011;65909;49.422;7.738;2023-04-08T02:18:23;14.88;;;8.95;;
54145;SDS011;65909;49.422;7.738;2023-04-08T02:21:13;13.20;;;9.18;;
54145;SDS011;65909;49.422;7.738;2023-04-08T02:23:40;12.88;;;9.32;;
54145;SDS011;65909;49.422;7.738;2023-04-08T02:26:12;13.20;;;9.07;;
54145;SDS011;65909;49.422;7.738;2023-04-08T02:28:39;12.68;;;9.20;;
54145;SDS011;65909;49.422;7.738;2023-04-08T02:31:08;13.35;;;9.30;;
54145;SDS011;65909;49.422;7.738;2023-04-08T02:33:37;15.95;;;9.50;;
54145;SDS011;65909;49.422;7.738;2023-04-08T02:36:03;11.70;;;9.20;;
54145;SDS011;65909;49.422;7.738;2023-04-08T02:38:30;13.63;;;9.48;;
54145;SDS011;65909;49.422;7.738;2023-04-08T02:40:56;12.70;;;8.73;;
54145;SDS011;65909;49.422;7.738;2023-04-08T02:43:21;12.40;;;9.10;;
54145;SDS011;65909;49.422;7.738;2023-04-08T02:45:50;16.10;;;9.55;;
54145;SDS011;65909;49.422;7.738;2023-04-08T02:48:16;13.68;;;9.30;;
54145;SDS011;65909;49.422;7.738;2023-04-08T02:50:41;11.77;;;8.45;;
54145;SDS011;65909;49.422;7.738;2023-04-08T02:53:07;12.32;;;8.15;;
54145;SDS011;65909;49.422;7.738;2023-04-08T02:55:33;10.07;;;7.50;;
54145;SDS011;65909;49.422;7.738;2023-04-08T02:57:58;12.45;;;7.53;;
54145;SDS011;65909;49.422;7.738;2023-04-08T03:00:24;10.02;;;7.07;;
54145;SDS011;65909;49.422;7.738;2023-04-08T03:02:49;11.38;;;7.53;;
54145;SDS011;65909;49.422;7.738;2023-04-08T03:05:14;15.50;;;9.90;;
54145;SDS011;65909;49.422;7.738;2023-04-08T03:07:40;13.52;;;8.98;;
54145;SDS011;65909;49.422;7.738;2023-04-08T03:10:06;13.82;;;8.65;;
54145;SDS011;65909;49.422;7.738;2023-04-08T03:12:32;11.52;;;8.52;;
54145;SDS011;65909;49.422;7.738;2023-04-08T03:14:57;10.52;;;8.30;;
54145;SDS011;65909;49.422;7.738;2023-04-08T03:17:22;10.70;;;7.93;;
54145;SDS011;65909;49.422;7.738;2023-04-08T03:19:48;10.65;;;8.07;;
54145;SDS011;65909;49.422;7.738;2023-04-08T03:22:13;11.05;;;7.10;;
54145;SDS011;65909;49.422;7.738;2023-04-08T03:24:39;11.05;;;7.80;;
54145;SDS011;65909;49.422;7.738;2023-04-08T03:27:04;11.57;;;7.30;;
54145;SDS011;65909;49.422;7.738;2023-04-08T03:29:30;9.43;;;7.50;;
54145;SDS011;65909;49.422;7.738;2023-04-08T03:31:55;9.35;;;6.70;;
54145;SDS011;65909;49.422;7.738;2023-04-08T03:34:21;10.13;;;6.95;;
54145;SDS011;65909;49.422;7.738;2023-04-08T03:36:46;9.65;;;7.45;;
54145;SDS011;65909;49.422;7.738;2023-04-08T03:39:11;11.38;;;7.68;;
54145;SDS011;65909;49.422;7.738;2023-04-08T03:41:37;14.82;;;7.93;;
54145;SDS011;65909;49.422;7.738;2023-04-08T03:44:02;11.48;;;7.88;;
54145;SDS011;65909;49.422;7.738;2023-04-08T03:46:28;11.10;;;7.30;;
54145;SDS011;65909;49.422;7.738;2023-04-08T03:48:53;8.77;;;6.22;;
54145;SDS011;65909;49.422;7.738;2023-04-08T03:51:19;9.93;;;6.65;;
54145;SDS011;65909;49.422;7.738;2023-04-08T03:53:44;9.60;;;6.80;;
54145;SDS011;65909;49.422;7.738;2023-04-08T03:56:09;9.93;;;6.78;;
54145;SDS011;65909;49.422;7.738;2023-04-08T03:58:35;9.23;;;7.20;;
54145;SDS011;65909;49.422;7.738;2023-04-08T04:01:00;7.50;;;6.40;;
54145;SDS011;65909;49.422;7.738;2023-04-08T04:03:25;8.82;;;6.50;;
54145;SDS011;65909;49.422;7.738;2023-04-08T04:05:51;7.88;;;6.03;;
54145;SDS011;65909;49.422;7.738;2023-04-08T04:08:17;8.48;;;7.03;;
54145;SDS011;65909;49.422;7.738;2023-04-08T04:10:42;9.93;;;6.45;;
54145;SDS011;65909;49.422;7.738;2023-04-08T04:13:07;8.68;;;6.05;;
54145;SDS011;65909;49.422;7.738;2023-04-08T04:15:36;7.07;;;6.13;;
54145;SDS011;65909;49.422;7.738;2023-04-08T04:18:03;8.75;;;6.38;;
54145;SDS011;65909;49.422;7.738;2023-04-08T04:20:29;9.95;;;7.20;;
54145;SDS011;65909;49.422;7.738;2023-04-08T04:22:54;8.77;;;7.00;;
54145;SDS011;65909;49.422;7.738;2023-04-08T04:25:20;9.55;;;7.30;;
54145;SDS011;65909;49.422;7.738;2023-04-08T04:27:45;11.57;;;6.82;;
54145;SDS011;65909;49.422;7.738;2023-04-08T04:30:10;8.73;;;6.85;;
54145;SDS011;65909;49.422;7.738;2023-04-08T04:32:39;8.95;;;6.88;;
54145;SDS011;65909;49.422;7.738;2023-04-08T04:35:05;10.48;;;6.10;;
54145;SDS011;65909;49.422;7.738;2023-04-08T04:37:31;9.55;;;6.10;;
54145;SDS011;65909;49.422;7.738;2023-04-08T04:39:56;9.38;;;6.63;;
54145;SDS011;65909;49.422;7.738;2023-04-08T04:42:21;11.20;;;6.53;;
54145;SDS011;65909;49.422;7.738;2023-04-08T04:44:47;8.68;;;6.13;;
54145;SDS011;65909;49.422;7.738;2023-04-08T04:47:12;7.88;;;6.55;;
54145;SDS011;65909;49.422;7.738;2023-04-08T04:49:37;9.07;;;6.88;;
54145;SDS011;65909;49.422;7.738;2023-04-08T04:52:04;10.15;;;6.97;;
54145;SDS011;65909;49.422;7.738;2023-04-08T04:54:29;8.65;;;6.88;;
54145;SDS011;65909;49.422;7.738;2023-04-08T04:56:55;11.77;;;7.28;;
54145;SDS011;65909;49.422;7.738;2023-04-08T04:59:20;11.63;;;7.35;;
54145;SDS011;65909;49.422;7.738;2023-04-08T05:01:45;9.63;;;7.43;;
54145;SDS011;65909;49.422;7.738;2023-04-08T05:04:11;9.77;;;6.55;;
54145;SDS011;65909;49.422;7.738;2023-04-08T05:06:36;9.65;;;7.13;;
54145;SDS011;65909;49.422;7.738;2023-04-08T05:09:01;11.88;;;6.90;;
54145;SDS011;65909;49.422;7.738;2023-04-08T05:11:27;9.20;;;7.20;;
54145;SDS011;65909;49.422;7.738;2023-04-08T05:13:52;11.25;;;7.20;;
54145;SDS011;65909;49.422;7.738;2023-04-08T05:16:17;9.43;;;6.25;;
54145;SDS011;65909;49.422;7.738;2023-04-08T05:18:43;10.43;;;7.15;;
54145;SDS011;65909;49.422;7.738;2023-04-08T05:21:09;10.38;;;7.18;;
54145;SDS011;65909;49.422;7.738;2023-04-08T05:23:34;9.68;;;7.15;;
54145;SDS011;65909;49.422;7.738;2023-04-08T05:26:00;10.77;;;7.55;;
54145;SDS011;65909;49.422;7.738;2023-04-08T05:28:25;10.13;;;6.55;;
54145;SDS011;65909;49.422;7.738;2023-04-08T05:30:51;11.18;;;6.85;;
54145;SDS011;65909;49.422;7.738;2023-04-08T05:33:17;10.00;;;7.05;;
54145;SDS011;65909;49.422;7.738;2023-04-08T05:35:43;9.25;;;6.60;;
54145;SDS011;65909;49.422;7.738;2023-04-08T05:38:09;10.00;;;7.00;;
54145;SDS011;65909;49.422;7.738;2023-04-08T05:40:35;12.32;;;7.22;;
54145;SDS011;65909;49.422;7.738;2023-04-08T05:43:00;13.73;;;7.82;;
54145;SDS011;65909;49.422;7.738;2023-04-08T05:45:29;8.43;;;6.25;;
54145;SDS011;65909;49.422;7.738;2023-04-08T05:47:54;9.25;;;6.75;;
54145;SDS011;65909;49.422;7.738;2023-04-08T05:50:20;9.55;;;6.50;;
54145;SDS011;65909;49.422;7.738;2023-04-08T05:52:45;10.55;;;7.13;;
54145;SDS011;65909;49.422;7.738;2023-04-08T05:55:11;9.18;;;6.25;;
54145;SDS011;65909;49.422;7.738;2023-04-08T05:57:37;9.98;;;7.22;;
54145;SDS011;65909;49.422;7.738;2023-04-08T06:00:06;10.88;;;7.43;;
54145;SDS011;65909;49.422;7.738;2023-04-08T06:02:33;14.50;;;8.25;;
54145;SDS011;65909;49.422;7.738;2023-04-08T06:05:00;10.93;;;8.30;;
54145;SDS011;65909;49.422;7.738;2023-04-08T06:07:25;10.75;;;6.47;;
54145;SDS011;65909;49.422;7.738;2023-04-08T06:09:51;15.43;;;8.68;;
54145;SDS011;65909;49.422;7.738;2023-04-08T06:12:16;9.73;;;6.88;;
54145;SDS011;65909;49.422;7.738;2023-04-08T06:14:42;12.80;;;7.75;;
54145;SDS011;65909;49.422;7.738;2023-04-08T06:17:07;14.15;;;7.80;;
54145;SDS011;65909;49.422;7.738;2023-04-08T06:19:32;10.73;;;7.38;;
54145;SDS011;65909;49.422;7.738;2023-04-08T06:21:58;14.15;;;8.32;;
54145;SDS011;65909;49.422;7.738;2023-04-08T06:24:27;12.32;;;7.63;;
54145;SDS011;65909;49.422;7.738;2023-04-08T06:26:53;10.27;;;7.53;;
54145;SDS011;65909;49.422;7.738;2023-04-08T06:29:20;12.23;;;8.10;;
54145;SDS011;65909;49.422;7.738;2023-04-08T06:31:46;15.88;;;9.05;;
54145;SDS011;65909;49.422;7.738;2023-04-08T06:34:11;14.25;;;9.35;;
54145;SDS011;65909;49.422;7.738;2023-04-08T06:36:37;14.43;;;8.88;;
54145;SDS011;65909;49.422;7.738;2023-04-08T06:39:02;13.70;;;7.63;;
54145;SDS011;65909;49.422;7.738;2023-04-08T06:41:28;13.02;;;8.73;;
54145;SDS011;65909;49.422;7.738;2023-04-08T06:43:54;16.25;;;9.20;;
54145;SDS011;65909;49.422;7.738;2023-04-08T06:46:19;11.75;;;8.07;;
54145;SDS011;65909;49.422;7.738;2023-04-08T06:48:45;12.43;;;8.57;;
54145;SDS011;65909;49.422;7.738;2023-04-08T06:51:11;12.40;;;8.23;;
54145;SDS011;65909;49.422;7.738;2023-04-08T06:53:36;14.27;;;8.88;;
54145;SDS011;65909;49.422;7.738;2023-04-08T06:56:01;14.52;;;8.65;;
54145;SDS011;65909;49.422;7.738;2023-04-08T06:58:27;13.20;;;8.15;;
54145;SDS011;65909;49.422;7.738;2023-04-08T07:00:53;13.00;;;8.88;;
54145;SDS011;65909;49.422;7.738;2023-04-08T07:03:20;16.83;;;8.95;;
54145;SDS011;65909;49.422;7.738;2023-04-08T07:05:46;12.15;;;7.90;;
54145;SDS011;65909;49.422;7.738;2023-04-08T07:08:11;12.18;;;7.90;;
54145;SDS011;65909;49.422;7.738;2023-04-08T07:10:37;13.85;;;7.90;;
54145;SDS011;65909;49.422;7.738;2023-04-08T07:13:02;9.93;;;7.57;;
54145;SDS011;65909;49.422;7.738;2023-04-08T07:15:27;13.52;;;8.57;;
54145;SDS011;65909;49.422;7.738;2023-04-08T07:17:53;11.18;;;7.40;;
54145;SDS011;65909;49.422;7.738;2023-04-08T07:20:20;16.55;;;8.82;;
54145;SDS011;65909;49.422;7.738;2023-04-08T07:22:46;11.43;;;7.80;;
54145;SDS011;65909;49.422;7.738;2023-04-08T07:25:12;10.43;;;7.82;;
54145;SDS011;65909;49.422;7.738;2023-04-08T07:27:37;11.35;;;8.60;;
54145;SDS011;65909;49.422;7.738;2023-04-08T07:30:03;11.10;;;8.27;;
54145;SDS011;65909;49.422;7.738;2023-04-08T07:32:29;11.50;;;8.10;;
54145;SDS011;65909;49.422;7.738;2023-04-08T07:34:54;12.98;;;8.20;;
54145;SDS011;65909;49.422;7.738;2023-04-08T07:37:19;13.70;;;8.88;;
54145;SDS011;65909;49.422;7.738;2023-04-08T07:39:45;11.65;;;7.28;;
54145;SDS011;65909;49.422;7.738;2023-04-08T07:42:10;14.95;;;8.75;;
54145;SDS011;65909;49.422;7.738;2023-04-08T07:44:36;11.02;;;7.93;;
54145;SDS011;65909;49.422;7.738;2023-04-08T07:47:02;10.75;;;7.97;;
54145;SDS011;65909;49.422;7.738;2023-04-08T07:49:27;10.82;;;7.72;;
54145;SDS011;65909;49.422;7.738;2023-04-08T07:51:53;16.60;;;8.18;;
54145;SDS011;65909;49.422;7.738;2023-04-08T07:54:18;11.23;;;8.07;;
54145;SDS011;65909;49.422;7.738;2023-04-08T07:56:43;11.93;;;7.80;;
54145;SDS011;65909;49.422;7.738;2023-04-08T07:59:09;11.88;;;8.70;;
54145;SDS011;65909;49.422;7.738;2023-04-08T08:01:35;10.63;;;7.65;;
54145;SDS011;65909;49.422;7.738;2023-04-08T08:04:01;14.32;;;8.30;;
54145;SDS011;65909;49.422;7.738;2023-04-08T08:06:27;11.00;;;8.00;;
54145;SDS011;65909;49.422;7.738;2023-04-08T08:08:52;12.13;;;8.70;;
54145;SDS011;65909;49.422;7.738;2023-04-08T08:11:18;12.05;;;8.90;;
54145;SDS011;65909;49.422;7.738;2023-04-08T08:13:43;12.50;;;8.25;;
54145;SDS011;65909;49.422;7.738;2023-04-08T08:16:09;12.90;;;8.43;;
54145;SDS011;65909;49.422;7.738;2023-04-08T08:18:35;13.25;;;8.65;;
54145;SDS011;65909;49.422;7.738;2023-04-08T08:21:01;14.05;;;8.65;;
54145;SDS011;65909;49.422;7.738;2023-04-08T08:23:27;10.75;;;8.70;;
54145;SDS011;65909;49.422;7.738;2023-04-08T08:26:02;12.77;;;8.82;;
54145;SDS011;65909;49.422;7.738;2023-04-08T08:28:30;12.50;;;8.38;;
54145;SDS011;65909;49.422;7.738;2023-04-08T08:30:55;14.40;;;8.27;;
54145;SDS011;65909;49.422;7.738;2023-04-08T08:33:21;13.65;;;9.27;;
54145;SDS011;65909;49.422;7.738;2023-04-08T08:35:46;13.80;;;9.85;;
54145;SDS011;65909;49.422;7.738;2023-04-08T08:38:12;14.77;;;9.43;;
54145;SDS011;65909;49.422;7.738;2023-04-08T08:40:38;16.27;;;9.25;;
54145;SDS011;65909;49.422;7.738;2023-04-08T08:43:03;12.95;;;9.82;;
54145;SDS011;65909;49.422;7.738;2023-04-08T08:45:29;15.07;;;9.77;;
54145;SDS011;65909;49.422;7.738;2023-04-08T08:47:55;13.48;;;9.50;;
54145;SDS011;65909;49.422;7.738;2023-04-08T08:50:21;15.82;;;9.27;;
54145;SDS011;65909;49.422;7.738;2023-04-08T08:52:47;14.77;;;9.40;;
54145;SDS011;65909;49.422;7.738;2023-04-08T08:55:14;14.70;;;9.20;;
54145;SDS011;65909;49.422;7.738;2023-04-08T08:57:41;36.28;;;11.48;;
54145;SDS011;65909;49.422;7.738;2023-04-08T09:00:07;17.92;;;9.45;;
54145;SDS011;65909;49.422;7.738;2023-04-08T09:02:33;15.48;;;9.02;;
54145;SDS011;65909;49.422;7.738;2023-04-08T09:05:02;13.07;;;8.80;;
54145;SDS011;65909;49.422;7.738;2023-04-08T09:07:29;14.80;;;8.95;;
54145;SDS011;65909;49.422;7.738;2023-04-08T09:09:56;12.30;;;8.60;;
54145;SDS011;65909;49.422;7.738;2023-04-08T09:12:23;12.27;;;8.32;;
54145;SDS011;65909;49.422;7.738;2023-04-08T09:14:51;13.45;;;8.50;;
54145;SDS011;65909;49.422;7.738;2023-04-08T09:17:34;15.57;;;7.97;;
54145;SDS011;65909;49.422;7.738;2023-04-08T09:20:04;11.60;;;7.38;;
54145;SDS011;65909;49.422;7.738;2023-04-08T09:23:09;12.90;;;8.52;;
54145;SDS011;65909;49.422;7.738;2023-04-08T09:25:28;9.68;;;6.45;;
54145;SDS011;65909;49.422;7.738;2023-04-08T09:27:56;7.97;;;6.93;;
54145;SDS011;65909;49.422;7.738;2023-04-08T09:30:22;10.98;;;7.25;;
54145;SDS011;65909;49.422;7.738;2023-04-08T09:32:49;10.00;;;7.13;;
54145;SDS011;65909;49.422;7.738;2023-04-08T09:35:17;9.77;;;6.32;;
54145;SDS011;65909;49.422;7.738;2023-04-08T09:37:43;9.20;;;6.60;;
54145;SDS011;65909;49.422;7.738;2023-04-08T09:40:08;10.63;;;7.05;;
54145;SDS011;65909;49.422;7.738;2023-04-08T09:42:35;10.57;;;6.22;;
54145;SDS011;65909;49.422;7.738;2023-04-08T09:45:04;10.80;;;6.68;;
54145;SDS011;65909;49.422;7.738;2023-04-08T09:47:31;9.10;;;6.63;;
54145;SDS011;65909;49.422;7.738;2023-04-08T09:50:03;8.40;;;5.60;;
54145;SDS011;65909;49.422;7.738;2023-04-08T09:52:33;9.40;;;6.63;;
54145;SDS011;65909;49.422;7.738;2023-04-08T09:55:08;10.25;;;6.78;;
54145;SDS011;65909;49.422;7.738;2023-04-08T10:02:49;8.50;;;6.22;;
54145;SDS011;65909;49.422;7.738;2023-04-08T10:05:16;13.00;;;6.57;;
54145;SDS011;65909;49.422;7.738;2023-04-08T10:07:43;8.80;;;6.60;;
54145;SDS011;65909;49.422;7.738;2023-04-08T10:10:09;8.00;;;6.18;;
54145;SDS011;65909;49.422;7.738;2023-04-08T10:12:38;10.23;;;6.72;;
54145;SDS011;65909;49.422;7.738;2023-04-08T10:15:25;10.40;;;6.18;;
54145;SDS011;65909;49.422;7.738;2023-04-08T10:17:51;11.10;;;6.13;;
54145;SDS011;65909;49.422;7.738;2023-04-08T10:20:44;9.13;;;5.93;;
54145;SDS011;65909;49.422;7.738;2023-04-08T10:23:12;11.15;;;6.22;;
54145;SDS011;65909;49.422;7.738;2023-04-08T10:35:58;8.73;;;6.05;;
54145;SDS011;65909;49.422;7.738;2023-04-08T10:38:23;8.15;;;5.72;;
54145;SDS011;65909;49.422;7.738;2023-04-08T10:40:49;9.00;;;5.22;;
54145;SDS011;65909;49.422;7.738;2023-04-08T10:43:15;8.38;;;5.35;;
54145;SDS011;65909;49.422;7.738;2023-04-08T10:45:41;9.98;;;6.25;;
54145;SDS011;65909;49.422;7.738;2023-04-08T10:48:17;7.88;;;6.20;;
54145;SDS011;65909;49.422;7.738;2023-04-08T10:53:37;13.05;;;6.72;;
54145;SDS011;65909;49.422;7.738;2023-04-08T10:56:10;11.40;;;6.63;;
54145;SDS011;65909;49.422;7.738;2023-04-08T10:58:46;10.48;;;6.53;;
54145;SDS011;65909;49.422;7.738;2023-04-08T11:01:22;10.05;;;6.70;;
54145;SDS011;65909;49.422;7.738;2023-04-08T11:03:48;7.68;;;5.85;;
54145;SDS011;65909;49.422;7.738;2023-04-08T11:06:14;11.57;;;6.88;;
54145;SDS011;65909;49.422;7.738;2023-04-08T11:08:40;8.85;;;6.22;;
54145;SDS011;65909;49.422;7.738;2023-04-08T11:11:05;9.27;;;6.15;;
54145;SDS011;65909;49.422;7.738;2023-04-08T11:13:35;8.65;;;6.22;;
54145;SDS011;65909;49.422;7.738;2023-04-08T11:16:03;9.45;;;5.95;;
54145;SDS011;65909;49.422;7.738;2023-04-08T11:18:30;8.02;;;6.07;;
54145;SDS011;65909;49.422;7.738;2023-04-08T11:20:56;8.05;;;6.05;;
54145;SDS011;65909;49.422;7.738;2023-04-08T11:23:25;8.20;;;6.28;;
54145;SDS011;65909;49.422;7.738;2023-04-08T11:25:51;8.45;;;6.57;;
54145;SDS011;65909;49.422;7.738;2023-04-08T11:28:16;10.02;;;6.57;;
54145;SDS011;65909;49.422;7.738;2023-04-08T11:30:42;8.43;;;6.18;;
54145;SDS011;65909;49.422;7.738;2023-04-08T11:33:08;8.75;;;6.47;;
54145;SDS011;65909;49.422;7.738;2023-04-08T11:35:38;8.88;;;7.03;;
54145;SDS011;65909;49.422;7.738;2023-04-08T11:38:05;9.98;;;6.53;;
54145;SDS011;65909;49.422;7.738;2023-04-08T11:40:32;11.30;;;7.47;;
54145;SDS011;65909;49.422;7.738;2023-04-08T11:42:57;9.13;;;6.55;;
54145;SDS011;65909;49.422;7.738;2023-04-08T11:45:23;9.85;;;6.45;;
54145;SDS011;65909;49.422;7.738;2023-04-08T11:47:48;9.88;;;6.18;;
54145;SDS011;65909;49.422;7.738;2023-04-08T11:50:26;9.90;;;6.97;;
54145;SDS011;65909;49.422;7.738;2023-04-08T11:52:53;8.82;;;6.30;;
54145;SDS011;65909;49.422;7.738;2023-04-08T11:55:29;10.95;;;6.85;;
54145;SDS011;65909;49.422;7.738;2023-04-08T11:57:56;10.68;;;6.95;;
54145;SDS011;65909;49.422;7.738;2023-04-08T12:00:25;9.40;;;6.78;;
54145;SDS011;65909;49.422;7.738;2023-04-08T12:02:52;9.88;;;7.07;;
54145;SDS011;65909;49.422;7.738;2023-04-08T12:05:17;9.98;;;6.72;;
54145;SDS011;65909;49.422;7.738;2023-04-08T12:07:42;9.35;;;6.90;;
54145;SDS011;65909;49.422;7.738;2023-04-08T12:10:11;9.55;;;6.93;;
54145;SDS011;65909;49.422;7.738;2023-04-08T12:12:37;13.73;;;7.78;;
54145;SDS011;65909;49.422;7.738;2023-04-08T12:15:03;10.88;;;7.70;;
54145;SDS011;65909;49.422;7.738;2023-04-08T12:17:29;10.90;;;7.05;;
54145;SDS011;65909;49.422;7.738;2023-04-08T12:19:55;10.65;;;7.93;;
54145;SDS011;65909;49.422;7.738;2023-04-08T12:22:20;10.18;;;7.68;;
54145;SDS011;65909;49.422;7.738;2023-04-08T12:24:46;13.43;;;7.82;;
54145;SDS011;65909;49.422;7.738;2023-04-08T12:27:12;11.07;;;8.25;;
54145;SDS011;65909;49.422;7.738;2023-04-08T12:29:37;10.25;;;6.72;;
54145;SDS011;65909;49.422;7.738;2023-04-08T12:32:03;8.23;;;6.35;;
54145;SDS011;65909;49.422;7.738;2023-04-08T12:34:29;8.90;;;6.40;;
54145;SDS011;65909;49.422;7.738;2023-04-08T12:36:55;8.52;;;6.35;;
54145;SDS011;65909;49.422;7.738;2023-04-08T12:39:20;10.45;;;6.82;;
54145;SDS011;65909;49.422;7.738;2023-04-08T12:41:46;8.95;;;6.10;;
54145;SDS011;65909;49.422;7.738;2023-04-08T12:44:11;8.95;;;6.15;;
54145;SDS011;65909;49.422;7.738;2023-04-08T12:46:37;9.80;;;6.57;;
54145;SDS011;65909;49.422;7.738;2023-04-08T12:49:02;8.68;;;6.97;;
54145;SDS011;65909;49.422;7.738;2023-04-08T12:51:28;8.88;;;6.72;;
54145;SDS011;65909;49.422;7.738;2023-04-08T12:53:53;15.32;;;7.18;;
54145;SDS011;65909;49.422;7.738;2023-04-08T12:56:18;10.73;;;6.45;;
54145;SDS011;65909;49.422;7.738;2023-04-08T12:58:45;10.02;;;6.78;;
54145;SDS011;65909;49.422;7.738;2023-04-08T13:01:10;9.00;;;6.47;;
54145;SDS011;65909;49.422;7.738;2023-04-08T13:03:36;10.82;;;7.07;;
54145;SDS011;65909;49.422;7.738;2023-04-08T13:06:01;9.30;;;6.82;;
54145;SDS011;65909;49.422;7.738;2023-04-08T13:08:27;9.68;;;6.93;;
54145;SDS011;65909;49.422;7.738;2023-04-08T13:10:53;10.82;;;6.90;;
54145;SDS011;65909;49.422;7.738;2023-04-08T13:13:21;12.13;;;6.60;;
54145;SDS011;65909;49.422;7.738;2023-04-08T13:15:46;10.13;;;7.05;;
54145;SDS011;65909;49.422;7.738;2023-04-08T13:18:12;8.90;;;6.75;;
54145;SDS011;65909;49.422;7.738;2023-04-08T13:20:37;9.73;;;7.13;;
54145;SDS011;65909;49.422;7.738;2023-04-08T13:23:03;9.57;;;6.57;;
54145;SDS011;65909;49.422;7.738;2023-04-08T13:25:28;10.65;;;7.80;;
54145;SDS011;65909;49.422;7.738;2023-04-08T13:27:54;9.93;;;6.70;;
54145;SDS011;65909;49.422;7.738;2023-04-08T13:30:19;12.05;;;7.07;;
54145;SDS011;65909;49.422;7.738;2023-04-08T13:32:45;9.35;;;6.97;;
54145;SDS011;65909;49.422;7.738;2023-04-08T13:35:10;9.98;;;7.03;;
54145;SDS011;65909;49.422;7.738;2023-04-08T13:37:36;13.65;;;7.40;;
54145;SDS011;65909;49.422;7.738;2023-04-08T13:40:02;11.57;;;8.27;;
54145;SDS011;65909;49.422;7.738;2023-04-08T13:42:28;10.27;;;7.45;;
54145;SDS011;65909;49.422;7.738;2023-04-08T13:44:55;11.90;;;7.80;;
54145;SDS011;65909;49.422;7.738;2023-04-08T13:47:21;10.95;;;7.53;;
54145;SDS011;65909;49.422;7.738;2023-04-08T13:49:47;10.70;;;8.23;;
54145;SDS011;65909;49.422;7.738;2023-04-08T13:52:12;9.82;;;7.25;;
54145;SDS011;65909;49.422;7.738;2023-04-08T13:54:37;11.00;;;7.10;;
54145;SDS011;65909;49.422;7.738;2023-04-08T13:57:03;11.38;;;8.02;;
54145;SDS011;65909;49.422;7.738;2023-04-08T13:59:28;11.35;;;7.53;;
54145;SDS011;65909;49.422;7.738;2023-04-08T14:01:53;11.60;;;8.32;;
54145;SDS011;65909;49.422;7.738;2023-04-08T14:04:19;11.88;;;7.63;;
54145;SDS011;65909;49.422;7.738;2023-04-08T14:06:45;12.45;;;8.57;;
54145;SDS011;65909;49.422;7.738;2023-04-08T14:09:11;10.90;;;8.50;;
54145;SDS011;65909;49.422;7.738;2023-04-08T14:11:37;11.05;;;7.78;;
54145;SDS011;65909;49.422;7.738;2023-04-08T14:14:02;11.35;;;8.13;;
54145;SDS011;65909;49.422;7.738;2023-04-08T14:16:27;10.98;;;8.07;;
54145;SDS011;65909;49.422;7.738;2023-04-08T14:18:55;11.80;;;8.43;;
54145;SDS011;65909;49.422;7.738;2023-04-08T14:21:20;10.43;;;8.02;;
54145;SDS011;65909;49.422;7.738;2023-04-08T14:23:46;12.57;;;8.63;;
54145;SDS011;65909;49.422;7.738;2023-04-08T14:26:12;12.05;;;8.68;;
54145;SDS011;65909;49.422;7.738;2023-04-08T14:28:37;12.57;;;9.10;;
54145;SDS011;65909;49.422;7.738;2023-04-08T14:31:02;15.25;;;9.40;;
54145;SDS011;65909;49.422;7.738;2023-04-08T14:33:28;14.48;;;9.35;;
54145;SDS011;65909;49.422;7.738;2023-04-08T14:35:54;12.38;;;8.43;;
54145;SDS011;65909;49.422;7.738;2023-04-08T14:38:20;13.90;;;9.43;;
54145;SDS011;65909;49.422;7.738;2023-04-08T14:40:45;13.20;;;8.60;;
54145;SDS011;65909;49.422;7.738;2023-04-08T14:43:10;13.43;;;8.95;;
54145;SDS011;65909;49.422;7.738;2023-04-08T14:45:37;15.50;;;9.50;;
54145;SDS011;65909;49.422;7.738;2023-04-08T14:48:03;15.77;;;9.73;;
54145;SDS011;65909;49.422;7.738;2023-04-08T14:50:28;13.32;;;8.45;;
54145;SDS011;65909;49.422;7.738;2023-04-08T14:52:54;13.77;;;8.60;;
54145;SDS011;65909;49.422;7.738;2023-04-08T14:55:20;13.80;;;9.15;;